Time;durP1;ratioP1;P1;durP2;ratioP2;P2;SDS_P1;SDS_P2;PMS_P1;PMS_P2;Temp;Humidity;BMP_temperature;BMP_pressure;BME280_temperature;BME280_humidity;BME280_pressure;Samples;Min_cycle;Max_cycle;Signal;HPM_P1;HPM_P2
2021/08/27 00:00:54;;;;;;;9.20;3.67;;;;;;;;;;4951171;28;20023;-83
2021/08/27 00:03:20;;;;;;;5.77;3.27;;;;;;;;;;4967498;28;20026;-83
2021/08/27 00:05:45;;;;;;;9.48;3.53;;;;;;;;;;4966831;28;20289;-82
2021/08/27 00:08:11;;;;;;;8.77;3.97;;;;;;;;;;4955649;28;20023;-82
2021/08/27 00:10:36;;;;;;;8.73;3.65;;;;;;;;;;4956995;28;20022;-83
2021/08/27 00:13:01;;;;;;;5.68;3.50;;;;;;;;;;4954603;28;20110;-83
2021/08/27 00:15:27;;;;;;;6.43;3.47;;;;;;;;;;4969823;28;20054;-82
2021/08/27 00:17:52;;;;;;;5.90;3.40;;;;;;;;;;4972747;28;20023;-82
2021/08/27 00:20:17;;;;;;;6.68;3.17;;;;;;;;;;4965127;28;20079;-82
2021/08/27 00:22:43;;;;;;;7.03;3.45;;;;;;;;;;4959453;28;20490;-82
2021/08/27 00:25:08;;;;;;;12.10;3.78;;;;;;;;;;4955373;28;20039;-82
2021/08/27 00:27:34;;;;;;;9.68;3.72;;;;;;;;;;4963661;28;20022;-82
2021/08/27 00:30:00;;;;;;;6.40;3.07;;;;;;;;;;4962670;28;20050;-83
2021/08/27 00:32:26;;;;;;;9.38;3.78;;;;;;;;;;4955338;28;20453;-82
2021/08/27 00:34:52;;;;;;;5.30;3.25;;;;;;;;;;4954504;28;20015;-82
2021/08/27 00:37:18;;;;;;;6.53;3.30;;;;;;;;;;4969185;28;20550;-82
2021/08/27 00:39:43;;;;;;;7.13;3.72;;;;;;;;;;4945334;29;20055;-83
2021/08/27 00:42:08;;;;;;;7.47;3.45;;;;;;;;;;4971824;28;20134;-82
2021/08/27 00:44:34;;;;;;;7.63;3.07;;;;;;;;;;4975975;28;20023;-82
2021/08/27 00:46:59;;;;;;;6.57;3.25;;;;;;;;;;4972812;28;20034;-82
2021/08/27 00:49:25;;;;;;;15.50;4.43;;;;;;;;;;4972530;28;20030;-82
2021/08/27 00:51:50;;;;;;;6.03;3.72;;;;;;;;;;4975627;28;20054;-82
2021/08/27 00:54:15;;;;;;;7.53;3.25;;;;;;;;;;4972643;28;20023;-83
2021/08/27 00:56:41;;;;;;;6.50;3.33;;;;;;;;;;4972733;28;20023;-83
2021/08/27 00:59:06;;;;;;;7.95;3.90;;;;;;;;;;4972702;28;20041;-82
2021/08/27 01:01:32;;;;;;;5.70;3.05;;;;;;;;;;4954261;28;20033;-83
2021/08/27 01:03:57;;;;;;;6.47;3.10;;;;;;;;;;4954643;28;20037;-83
2021/08/27 01:06:44;;;;;;;7.38;3.45;;;;;;;;;;4972747;28;20624;-83
2021/08/27 01:09:33;;;;;;;5.20;3.78;;;;;;;;;;4972372;28;20277;-83
2021/08/27 01:12:11;;;;;;;5.78;3.10;;;;;;;;;;4959122;28;20347;-84
2021/08/27 01:14:40;;;;;;;5.65;3.30;;;;;;;;;;4971979;28;20034;-83
2021/08/27 01:17:06;;;;;;;;;;;;;;;;;;4971865;28;20326;-83
2021/08/27 01:19:51;;;;;;;7.90;3.30;;;;;;;;;;4974118;28;19910;-83
2021/08/27 01:22:31;;;;;;;7.45;2.95;;;;;;;;;;4975749;28;20074;-83
2021/08/27 01:24:57;;;;;;;8.18;3.08;;;;;;;;;;4967056;28;20069;-83
2021/08/27 01:27:24;;;;;;;6.53;3.65;;;;;;;;;;4954549;28;20053;-83
2021/08/27 01:30:08;;;;;;;7.10;3.47;;;;;;;;;;4971540;28;20590;-83
2021/08/27 01:32:52;;;;;;;7.78;3.58;;;;;;;;;;4973741;28;20437;-84
2021/08/27 01:35:17;;;;;;;8.18;3.63;;;;;;;;;;4974898;28;20022;-84
2021/08/27 01:37:44;;;;;;;7.70;3.30;;;;;;;;;;4971593;28;20023;-83
2021/08/27 01:40:10;;;;;;;7.05;3.15;;;;;;;;;;4971533;28;20106;-83
2021/08/27 01:42:37;;;;;;;9.75;3.38;;;;;;;;;;4966534;28;20129;-83
2021/08/27 01:45:03;;;;;;;8.65;4.30;;;;;;;;;;4966089;28;20383;-84
2021/08/27 01:47:32;;;;;;;5.32;3.17;;;;;;;;;;4952679;28;20037;-83
2021/08/27 01:49:58;;;;;;;6.70;3.50;;;;;;;;;;4954409;28;20020;-84
2021/08/27 01:52:25;;;;;;;7.72;3.10;;;;;;;;;;4941458;28;20377;-84
2021/08/27 01:54:51;;;;;;;9.55;3.22;;;;;;;;;;4966132;28;20660;-82
2021/08/27 01:57:17;;;;;;;7.07;3.85;;;;;;;;;;4964202;28;20023;-82
2021/08/27 01:59:44;;;;;;;7.10;3.80;;;;;;;;;;4969238;28;20018;-83
2021/08/27 02:02:11;;;;;;;6.65;3.08;;;;;;;;;;4961014;28;20787;-83
2021/08/27 02:04:38;;;;;;;6.35;3.22;;;;;;;;;;4962270;28;20027;-82
2021/08/27 02:07:04;;;;;;;6.15;3.22;;;;;;;;;;4956120;28;20389;-82
2021/08/27 02:09:30;;;;;;;8.38;3.28;;;;;;;;;;4954682;28;20521;-82
2021/08/27 02:11:56;;;;;;;8.48;3.17;;;;;;;;;;4968375;28;20074;-82
2021/08/27 02:14:21;;;;;;;7.18;3.30;;;;;;;;;;4952530;28;20035;-82
2021/08/27 02:16:46;;;;;;;5.80;2.80;;;;;;;;;;4954407;28;20058;-82
2021/08/27 02:19:12;;;;;;;5.70;3.20;;;;;;;;;;4959713;28;20026;-83
2021/08/27 02:21:48;;;;;;;9.27;3.42;;;;;;;;;;4959722;28;20026;-83
2021/08/27 02:24:17;;;;;;;6.88;2.80;;;;;;;;;;4961272;28;20359;-83
2021/08/27 02:26:46;;;;;;;5.75;2.95;;;;;;;;;;4963517;28;20052;-83
2021/08/27 02:29:14;;;;;;;6.45;3.10;;;;;;;;;;4938263;28;20356;-83
2021/08/27 02:31:40;;;;;;;7.47;3.13;;;;;;;;;;4948578;28;20027;-83
2021/08/27 02:34:06;;;;;;;7.03;3.20;;;;;;;;;;4967295;28;20385;-83
2021/08/27 02:36:31;;;;;;;9.80;3.58;;;;;;;;;;4969549;28;20023;-82
2021/08/27 02:38:58;;;;;;;8.45;3.78;;;;;;;;;;4970345;28;20025;-83
2021/08/27 02:41:23;;;;;;;5.57;3.13;;;;;;;;;;4960244;28;20519;-85
2021/08/27 02:43:49;;;;;;;7.43;3.33;;;;;;;;;;4970052;28;20054;-84
2021/08/27 02:46:14;;;;;;;8.88;3.60;;;;;;;;;;4967715;28;20035;-84
2021/08/27 02:48:39;;;;;;;7.43;2.90;;;;;;;;;;4952003;28;20082;-84
2021/08/27 02:51:08;;;;;;;6.28;3.30;;;;;;;;;;4951585;28;20034;-84
2021/08/27 02:53:34;;;;;;;5.80;3.15;;;;;;;;;;4939026;28;20366;-84
2021/08/27 02:56:04;;;;;;;7.72;3.45;;;;;;;;;;4958332;28;20414;-84
2021/08/27 02:58:32;;;;;;;5.97;2.67;;;;;;;;;;4965375;28;20030;-84
2021/08/27 03:01:04;;;;;;;9.15;3.60;;;;;;;;;;4962521;28;20038;-84
2021/08/27 03:03:35;;;;;;;8.88;3.58;;;;;;;;;;4932271;28;20023;-84
2021/08/27 03:06:20;;;;;;;7.60;3.67;;;;;;;;;;4950252;28;20066;-84
2021/08/27 03:08:48;;;;;;;10.07;4.05;;;;;;;;;;4949874;28;20039;-84
2021/08/27 03:11:22;;;;;;;5.75;3.25;;;;;;;;;;4953788;28;20625;-84
2021/08/27 03:13:54;;;;;;;7.95;4.13;;;;;;;;;;4957617;28;20377;-83
2021/08/27 03:16:22;;;;;;;9.00;3.63;;;;;;;;;;4969792;28;20015;-84
2021/08/27 03:18:55;;;;;;;7.32;3.70;;;;;;;;;;4956509;28;20367;-82
2021/08/27 03:21:41;;;;;;;7.10;3.70;;;;;;;;;;4952119;28;20441;-82
2021/08/27 03:24:18;;;;;;;9.30;3.60;;;;;;;;;;4954222;28;20474;-82
2021/08/27 03:26:45;;;;;;;7.85;4.40;;;;;;;;;;4958698;28;20427;-81
2021/08/27 03:29:12;;;;;;;10.52;5.05;;;;;;;;;;4953049;28;20427;-82
2021/08/27 03:31:38;;;;;;;12.38;5.63;;;;;;;;;;4951418;28;20065;-82
2021/08/27 03:34:04;;;;;;;11.63;4.68;;;;;;;;;;4958419;28;20058;-82
2021/08/27 03:36:30;;;;;;;9.20;5.10;;;;;;;;;;4960564;28;20031;-82
2021/08/27 03:38:56;;;;;;;10.05;5.93;;;;;;;;;;4965561;28;20233;-81
2021/08/27 03:41:24;;;;;;;10.82;4.63;;;;;;;;;;4967702;28;20453;-81
2021/08/27 03:43:50;;;;;;;7.25;4.57;;;;;;;;;;4954977;29;20337;-81
2021/08/27 03:46:15;;;;;;;11.85;5.28;;;;;;;;;;4954184;28;20082;-81
2021/08/27 03:48:41;;;;;;;11.95;6.32;;;;;;;;;;4952449;28;20521;-82
2021/08/27 03:51:08;;;;;;;13.15;5.75;;;;;;;;;;4954309;29;20050;-82
2021/08/27 03:53:33;;;;;;;11.88;6.93;;;;;;;;;;4954779;28;20406;-82
2021/08/27 03:55:59;;;;;;;12.57;6.40;;;;;;;;;;4954334;28;20023;-83
2021/08/27 03:58:25;;;;;;;10.30;5.43;;;;;;;;;;4955498;28;21354;-82
2021/08/27 04:00:51;;;;;;;9.68;5.47;;;;;;;;;;4955310;28;20086;-83
2021/08/27 04:03:20;;;;;;;10.35;4.60;;;;;;;;;;4956772;28;20532;-82
2021/08/27 04:06:04;;;;;;;9.17;4.30;;;;;;;;;;4957318;28;20355;-82
2021/08/27 04:08:32;;;;;;;10.23;4.53;;;;;;;;;;4957879;28;20730;-82
2021/08/27 04:10:57;;;;;;;9.63;5.25;;;;;;;;;;4953915;28;20031;-84
2021/08/27 04:13:22;;;;;;;10.93;5.45;;;;;;;;;;4954055;28;20030;-83
2021/08/27 04:15:48;;;;;;;9.30;6.07;;;;;;;;;;4954600;28;20030;-81
2021/08/27 04:18:13;;;;;;;7.68;5.10;;;;;;;;;;4954575;28;20574;-82
2021/08/27 04:20:39;;;;;;;7.32;5.22;;;;;;;;;;4960928;28;20065;-82
2021/08/27 04:23:04;;;;;;;9.88;4.60;;;;;;;;;;4954387;28;20019;-82
2021/08/27 04:25:29;;;;;;;8.95;4.80;;;;;;;;;;4954217;29;20023;-80
2021/08/27 04:27:55;;;;;;;11.80;6.35;;;;;;;;;;4953788;28;20034;-82
2021/08/27 04:30:20;;;;;;;10.32;5.20;;;;;;;;;;4956438;28;20042;-81
2021/08/27 04:32:46;;;;;;;8.80;4.43;;;;;;;;;;4953886;29;20039;-81
2021/08/27 04:35:11;;;;;;;9.35;5.53;;;;;;;;;;4953941;28;20038;-81
2021/08/27 04:37:36;;;;;;;9.75;4.38;;;;;;;;;;4953069;28;20023;-81
2021/08/27 04:40:02;;;;;;;9.70;4.05;;;;;;;;;;4953697;28;20023;-81
2021/08/27 04:42:28;;;;;;;9.25;5.35;;;;;;;;;;4966476;28;20168;-82
2021/08/27 04:44:54;;;;;;;10.73;5.22;;;;;;;;;;4972579;28;20652;-81
2021/08/27 04:47:19;;;;;;;8.13;4.95;;;;;;;;;;4953679;28;20114;-80
2021/08/27 04:49:45;;;;;;;9.52;4.28;;;;;;;;;;4947431;28;20502;-86
2021/08/27 04:52:10;;;;;;;9.33;4.47;;;;;;;;;;4952784;28;20015;-84
2021/08/27 04:54:35;;;;;;;9.05;5.75;;;;;;;;;;4953394;28;20255;-84
2021/08/27 04:57:01;;;;;;;10.87;5.47;;;;;;;;;;4965815;28;20090;-83
2021/08/27 04:59:26;;;;;;;6.82;4.57;;;;;;;;;;4956670;28;20881;-85
2021/08/27 05:01:51;;;;;;;9.15;4.40;;;;;;;;;;4944954;28;20047;-81
2021/08/27 05:04:17;;;;;;;10.13;4.85;;;;;;;;;;4954520;28;20023;-81
2021/08/27 05:06:42;;;;;;;9.43;4.55;;;;;;;;;;4953487;28;20478;-78
2021/08/27 05:09:07;;;;;;;8.43;4.87;;;;;;;;;;4953342;28;20019;-78
2021/08/27 05:11:33;;;;;;;8.73;5.15;;;;;;;;;;4963140;28;20293;-88
2021/08/27 05:13:58;;;;;;;9.88;5.47;;;;;;;;;;4952489;28;20023;-90
2021/08/27 05:16:24;;;;;;;10.32;6.68;;;;;;;;;;4953776;28;20027;-88
2021/08/27 05:18:49;;;;;;;13.60;9.17;;;;;;;;;;4961580;28;20051;-92
2021/08/27 05:21:16;;;;;;;11.80;7.82;;;;;;;;;;4968095;28;21120;-85
2021/08/27 05:23:41;;;;;;;12.88;8.15;;;;;;;;;;4960485;28;20106;-84
2021/08/27 05:26:06;;;;;;;15.30;9.48;;;;;;;;;;4963834;28;20177;-93
2021/08/27 05:28:32;;;;;;;15.85;9.07;;;;;;;;;;4961122;28;20023;-87
2021/08/27 05:30:57;;;;;;;11.98;8.02;;;;;;;;;;4959115;28;20033;-87
2021/08/27 05:33:22;;;;;;;14.13;8.80;;;;;;;;;;4956670;28;20043;-87
2021/08/27 05:35:48;;;;;;;11.85;8.48;;;;;;;;;;4954937;28;20086;-89
2021/08/27 05:38:13;;;;;;;16.40;9.48;;;;;;;;;;4962733;28;20020;-90
2021/08/27 05:40:39;;;;;;;17.37;9.87;;;;;;;;;;4965222;28;20496;-90
2021/08/27 05:43:04;;;;;;;14.75;9.98;;;;;;;;;;4973891;28;20326;-93
2021/08/27 05:45:30;;;;;;;13.67;9.17;;;;;;;;;;4992278;28;20029;-91
2021/08/27 05:47:55;;;;;;;9.98;8.07;;;;;;;;;;4978761;28;20305;-88
2021/08/27 05:50:20;;;;;;;14.27;10.07;;;;;;;;;;4959366;28;20014;-88
2021/08/27 05:52:46;;;;;;;14.77;9.80;;;;;;;;;;4985825;28;20023;-86
2021/08/27 05:55:12;;;;;;;15.20;9.07;;;;;;;;;;4973295;28;20022;-87
2021/08/27 05:57:37;;;;;;;14.73;8.38;;;;;;;;;;4973727;28;20737;-85
2021/08/27 06:00:03;;;;;;;12.20;7.73;;;;;;;;;;4956024;28;20105;-88
2021/08/27 06:02:29;;;;;;;10.00;7.07;;;;;;;;;;4973016;28;20791;-88
2021/08/27 06:04:54;;;;;;;14.00;7.67;;;;;;;;;;4973240;28;20042;-85
2021/08/27 06:07:19;;;;;;;11.18;7.40;;;;;;;;;;4975535;28;20268;-92
2021/08/27 06:09:45;;;;;;;12.38;7.00;;;;;;;;;;4973027;28;20612;-88
2021/08/27 06:12:10;;;;;;;9.13;6.10;;;;;;;;;;4972873;28;20106;-87
2021/08/27 06:14:35;;;;;;;11.07;6.00;;;;;;;;;;4975488;28;20030;-85
2021/08/27 06:17:01;;;;;;;8.98;5.40;;;;;;;;;;4972380;28;20756;-87
2021/08/27 06:19:26;;;;;;;31.77;24.58;;;;;;;;;;4974206;28;20034;-86
2021/08/27 06:21:52;;;;;;;13.57;8.30;;;;;;;;;;4977508;28;20011;-87
2021/08/27 06:24:17;;;;;;;10.93;5.90;;;;;;;;;;4987595;28;20018;-86
2021/08/27 06:26:42;;;;;;;9.70;5.80;;;;;;;;;;4970311;28;20690;-85
2021/08/27 06:29:07;;;;;;;11.87;5.20;;;;;;;;;;4969013;28;20025;-86
2021/08/27 06:31:33;;;;;;;9.35;5.25;;;;;;;;;;4971648;28;20037;-86
2021/08/27 06:33:58;;;;;;;8.05;4.63;;;;;;;;;;4978303;28;20101;-86
2021/08/27 06:36:23;;;;;;;8.00;4.53;;;;;;;;;;4976104;28;20551;-86
2021/08/27 06:38:49;;;;;;;8.87;5.10;;;;;;;;;;4973162;28;20033;-87
2021/08/27 06:41:14;;;;;;;9.02;4.15;;;;;;;;;;4974259;28;20797;-86
2021/08/27 06:43:44;;;;;;;7.40;4.45;;;;;;;;;;4966183;28;20057;-85
2021/08/27 06:46:12;;;;;;;11.35;4.50;;;;;;;;;;4956829;28;20382;-85
2021/08/27 06:48:38;;;;;;;9.63;4.70;;;;;;;;;;4965698;28;20371;-87
2021/08/27 06:51:03;;;;;;;7.68;3.92;;;;;;;;;;4961009;28;20177;-87
2021/08/27 06:53:28;;;;;;;8.05;4.32;;;;;;;;;;4956419;28;20023;-84
2021/08/27 06:55:54;;;;;;;11.15;6.50;;;;;;;;;;4964528;28;20034;-84
2021/08/27 06:58:19;;;;;;;12.05;7.78;;;;;;;;;;4959964;28;20023;-88
2021/08/27 07:00:45;;;;;;;10.02;4.60;;;;;;;;;;4960459;28;20040;-88
2021/08/27 07:03:10;;;;;;;8.30;3.28;;;;;;;;;;4955980;28;20023;-86
2021/08/27 07:05:35;;;;;;;7.95;3.50;;;;;;;;;;4956263;28;20110;-88
2021/08/27 07:08:01;;;;;;;5.78;3.60;;;;;;;;;;4957583;28;20075;-87
2021/08/27 07:10:26;;;;;;;6.65;3.83;;;;;;;;;;4960822;28;20027;-86
2021/08/27 07:12:52;;;;;;;6.70;4.15;;;;;;;;;;4966408;28;20023;-87
2021/08/27 07:15:17;;;;;;;8.93;4.25;;;;;;;;;;4953160;28;20185;-84
2021/08/27 07:17:43;;;;;;;7.22;3.17;;;;;;;;;;4955342;28;20018;-84
2021/08/27 07:20:09;;;;;;;9.43;3.28;;;;;;;;;;4954794;28;20114;-85
2021/08/27 07:22:35;;;;;;;7.57;3.20;;;;;;;;;;4956057;28;20444;-85
2021/08/27 07:25:00;;;;;;;10.30;3.03;;;;;;;;;;4961010;28;20027;-83
2021/08/27 07:27:26;;;;;;;8.00;2.75;;;;;;;;;;4959960;28;20023;-84
2021/08/27 07:29:51;;;;;;;7.15;3.00;;;;;;;;;;4951661;28;20023;-84
2021/08/27 07:32:16;;;;;;;7.28;3.10;;;;;;;;;;4959350;28;20042;-84
2021/08/27 07:34:44;;;;;;;10.13;3.00;;;;;;;;;;4956314;28;20027;-84
2021/08/27 07:37:13;;;;;;;7.65;3.40;;;;;;;;;;4953313;28;20436;-83
2021/08/27 07:39:38;;;;;;;6.88;2.88;;;;;;;;;;4990622;28;20015;-82
2021/08/27 07:42:05;;;;;;;4.93;2.53;;;;;;;;;;4961924;28;20105;-82
2021/08/27 07:44:30;;;;;;;6.13;2.17;;;;;;;;;;4953723;28;20094;-83
2021/08/27 07:46:55;;;;;;;4.55;2.30;;;;;;;;;;4964157;28;20042;-82
2021/08/27 07:49:21;;;;;;;8.77;2.75;;;;;;;;;;4968424;28;20536;-82
2021/08/27 07:51:47;;;;;;;8.00;2.63;;;;;;;;;;4951834;28;20024;-81
2021/08/27 07:54:13;;;;;;;5.05;1.70;;;;;;;;;;4963298;28;20497;-83
2021/08/27 07:56:38;;;;;;;4.22;1.80;;;;;;;;;;4957367;28;20568;-82
2021/08/27 07:59:03;;;;;;;6.53;1.77;;;;;;;;;;4944993;28;20026;-80
2021/08/27 08:01:29;;;;;;;4.20;1.43;;;;;;;;;;4978029;28;20255;-83
2021/08/27 08:03:54;;;;;;;4.93;1.90;;;;;;;;;;4951695;28;20019;-80
2021/08/27 08:06:19;;;;;;;3.72;1.92;;;;;;;;;;4951092;28;20277;-84
2021/08/27 08:08:44;;;;;;;31.27;27.40;;;;;;;;;;4950823;28;20110;-81
2021/08/27 08:11:10;;;;;;;29.63;22.33;;;;;;;;;;4964818;28;20039;-81
2021/08/27 08:13:35;;;;;;;7.70;3.38;;;;;;;;;;4956978;28;20019;-81
2021/08/27 08:16:01;;;;;;;5.93;2.03;;;;;;;;;;4969288;28;20019;-83
2021/08/27 08:18:27;;;;;;;5.50;1.63;;;;;;;;;;4969821;28;20030;-83
2021/08/27 08:20:52;;;;;;;4.95;1.60;;;;;;;;;;4965254;28;20023;-83
2021/08/27 08:23:17;;;;;;;5.43;1.60;;;;;;;;;;4969055;28;20031;-83
2021/08/27 08:25:42;;;;;;;5.87;1.97;;;;;;;;;;4965147;28;20295;-84
2021/08/27 08:28:09;;;;;;;4.78;2.00;;;;;;;;;;4965499;28;20258;-85
2021/08/27 08:30:34;;;;;;;6.15;2.70;;;;;;;;;;4963522;28;20109;-84
2021/08/27 08:33:00;;;;;;;7.28;2.63;;;;;;;;;;5004612;28;20110;-83
2021/08/27 08:35:25;;;;;;;6.72;2.40;;;;;;;;;;4966979;28;20035;-84
2021/08/27 08:37:50;;;;;;;5.67;1.93;;;;;;;;;;4963084;28;20026;-83
2021/08/27 08:40:16;;;;;;;4.23;1.80;;;;;;;;;;4968240;28;20102;-93
2021/08/27 08:42:42;;;;;;;5.28;2.00;;;;;;;;;;4966370;28;20378;-89
2021/08/27 08:45:08;;;;;;;2.65;1.55;;;;;;;;;;4956523;28;20485;-88
2021/08/27 08:47:35;;;;;;;3.65;1.70;;;;;;;;;;4961430;28;20046;-86
2021/08/27 08:50:02;;;;;;;3.33;1.40;;;;;;;;;;4961235;28;20093;-86
2021/08/27 08:52:28;;;;;;;4.72;2.05;;;;;;;;;;4966787;28;20399;-84
2021/08/27 08:54:53;;;;;;;5.40;1.67;;;;;;;;;;4969349;28;20027;-84
2021/08/27 08:57:22;;;;;;;4.50;1.40;;;;;;;;;;4959044;28;20049;-85
2021/08/27 08:59:47;;;;;;;3.30;1.40;;;;;;;;;;4962242;28;20367;-85
2021/08/27 09:02:12;;;;;;;3.45;1.67;;;;;;;;;;4961229;28;20042;-84
2021/08/27 09:04:38;;;;;;;5.22;1.67;;;;;;;;;;4954444;28;20030;-83
2021/08/27 09:07:05;;;;;;;4.00;1.75;;;;;;;;;;4961053;28;20035;-85
2021/08/27 09:09:31;;;;;;;3.60;1.70;;;;;;;;;;4965738;28;20050;-85
2021/08/27 09:11:57;;;;;;;2.67;1.50;;;;;;;;;;4966554;28;20577;-86
2021/08/27 09:14:26;;;;;;;6.55;1.55;;;;;;;;;;4961612;28;20026;-85
2021/08/27 09:16:59;;;;;;;6.55;1.80;;;;;;;;;;4965377;28;20565;-86
2021/08/27 09:19:41;;;;;;;4.50;1.90;;;;;;;;;;4956580;28;20083;-86
2021/08/27 09:22:06;;;;;;;3.58;1.55;;;;;;;;;;4983717;28;20098;-87
2021/08/27 09:24:32;;;;;;;3.37;1.47;;;;;;;;;;4964974;28;20027;-85
2021/08/27 09:26:58;;;;;;;4.05;1.88;;;;;;;;;;4965783;28;20425;-85
2021/08/27 09:29:32;;;;;;;4.80;1.48;;;;;;;;;;4958140;28;20031;-87
2021/08/27 09:31:58;;;;;;;5.90;1.83;;;;;;;;;;4957847;28;20111;-86
2021/08/27 09:34:30;;;;;;;2.83;2.05;;;;;;;;;;4958666;28;20026;-87
2021/08/27 09:36:56;;;;;;;3.85;1.50;;;;;;;;;;4969016;28;20402;-87
2021/08/27 09:39:30;;;;;;;3.88;1.38;;;;;;;;;;5001438;28;20031;-89
2021/08/27 09:41:56;;;;;;;3.42;2.33;;;;;;;;;;4993389;28;20263;-88
2021/08/27 09:44:22;;;;;;;7.13;4.20;;;;;;;;;;4950484;28;20034;-91
2021/08/27 09:46:47;;;;;;;2.95;1.80;;;;;;;;;;4968122;28;20019;-84
2021/08/27 09:49:32;;;;;;;4.07;1.60;;;;;;;;;;4966604;28;20031;-86
2021/08/27 09:52:00;;;;;;;3.95;1.42;;;;;;;;;;4949537;28;20687;-85
2021/08/27 09:54:27;;;;;;;2.00;1.42;;;;;;;;;;4955393;28;20015;-84
2021/08/27 09:56:54;;;;;;;3.42;1.60;;;;;;;;;;4953189;28;20355;-85
2021/08/27 09:59:30;;;;;;;4.82;1.95;;;;;;;;;;4955324;28;20061;-85
2021/08/27 10:01:55;;;;;;;6.13;1.92;;;;;;;;;;4953218;28;20351;-82
2021/08/27 10:04:21;;;;;;;5.32;2.22;;;;;;;;;;4958662;28;20073;-83
2021/08/27 10:06:46;;;;;;;5.60;2.38;;;;;;;;;;4957359;28;20022;-84
2021/08/27 10:09:11;;;;;;;3.87;1.73;;;;;;;;;;4958565;28;20031;-85
2021/08/27 10:11:37;;;;;;;5.30;1.80;;;;;;;;;;4951523;28;20891;-83
2021/08/27 10:14:03;;;;;;;6.20;2.45;;;;;;;;;;4962305;28;20685;-84
2021/08/27 10:16:30;;;;;;;3.95;2.10;;;;;;;;;;4955367;28;20091;-83
2021/08/27 10:18:55;;;;;;;3.63;1.60;;;;;;;;;;4967446;28;20597;-84
2021/08/27 10:21:21;;;;;;;5.60;2.53;;;;;;;;;;4965203;28;20105;-84
2021/08/27 10:23:46;;;;;;;5.72;1.63;;;;;;;;;;4966822;28;20499;-83
2021/08/27 10:26:19;;;;;;;6.72;2.38;;;;;;;;;;4940063;28;20027;-84
2021/08/27 10:28:45;;;;;;;14.77;12.50;;;;;;;;;;4959785;28;20442;-85
2021/08/27 10:31:10;;;;;;;6.25;2.53;;;;;;;;;;4955631;28;20354;-86
2021/08/27 10:33:38;;;;;;;5.35;2.08;;;;;;;;;;4961285;28;20034;-86
2021/08/27 10:36:03;;;;;;;3.00;1.83;;;;;;;;;;4952370;28;20023;-86
2021/08/27 10:38:42;;;;;;;7.87;2.10;;;;;;;;;;4964981;28;20074;-87
2021/08/27 10:41:18;;;;;;;7.50;2.10;;;;;;;;;;4948462;28;20345;-87
2021/08/27 10:44:00;;;;;;;6.82;2.47;;;;;;;;;;4963518;28;20034;-86
2021/08/27 10:46:44;;;;;;;6.20;2.00;;;;;;;;;;4967827;28;20380;-86
2021/08/27 10:49:09;;;;;;;6.22;1.92;;;;;;;;;;4955674;28;20038;-86
2021/08/27 10:51:36;;;;;;;4.03;1.90;;;;;;;;;;4960257;28;20022;-86
2021/08/27 10:54:01;;;;;;;7.13;2.42;;;;;;;;;;4967903;28;20232;-87
2021/08/27 10:56:46;;;;;;;3.78;1.90;;;;;;;;;;4962845;28;20098;-87
2021/08/27 10:59:12;;;;;;;5.05;1.70;;;;;;;;;;4956683;28;20361;-87
2021/08/27 11:01:42;;;;;;;4.88;1.88;;;;;;;;;;4960830;28;20023;-89
2021/08/27 11:04:23;;;;;;;3.60;1.77;;;;;;;;;;4961289;28;20055;-90
2021/08/27 11:06:52;;;;;;;5.40;1.88;;;;;;;;;;4947377;28;20123;-90
2021/08/27 11:09:18;;;;;;;6.25;2.20;;;;;;;;;;4954505;28;20110;-89
2021/08/27 11:11:44;;;;;;;9.13;2.15;;;;;;;;;;4959674;28;20301;-89
2021/08/27 11:14:13;;;;;;;5.22;2.70;;;;;;;;;;4950762;29;20052;-88
2021/08/27 11:16:39;;;;;;;;;;;;;;;;;;4941655;28;20027;-89
2021/08/27 11:19:26;;;;;;;4.40;2.30;;;;;;;;;;4966438;28;20312;-90
2021/08/27 11:22:21;;;;;;;4.68;2.22;;;;;;;;;;4951252;28;20416;-88
2021/08/27 11:25:02;;;;;;;5.05;1.77;;;;;;;;;;4941293;28;20030;-89
2021/08/27 11:27:27;;;;;;;2.80;1.85;;;;;;;;;;4950588;28;20029;-88
2021/08/27 11:29:53;;;;;;;3.90;2.28;;;;;;;;;;4961056;28;20037;-89
2021/08/27 11:32:27;;;;;;;3.90;2.33;;;;;;;;;;4955008;28;20038;-88
2021/08/27 11:34:56;;;;;;;6.07;1.90;;;;;;;;;;4942575;29;20016;-89
2021/08/27 11:37:23;;;;;;;12.20;6.72;;;;;;;;;;4962259;28;20369;-87
2021/08/27 11:39:49;;;;;;;29.20;22.15;;;;;;;;;;4961676;28;20019;-89
2021/08/27 11:42:15;;;;;;;8.05;3.28;;;;;;;;;;4956268;28;20052;-89
2021/08/27 11:44:43;;;;;;;7.45;2.67;;;;;;;;;;4953404;28;20267;-87
2021/08/27 11:47:12;;;;;;;9.75;2.72;;;;;;;;;;4955517;28;20026;-89
2021/08/27 11:49:58;;;;;;;8.73;3.28;;;;;;;;;;4959408;28;20425;-87
2021/08/27 11:52:27;;;;;;;6.55;2.67;;;;;;;;;;4962026;28;20263;-89
2021/08/27 11:54:52;;;;;;;;;;;;;;;;;;4958399;28;20011;-88
2021/08/27 11:57:20;;;;;;;4.33;1.80;;;;;;;;;;4952395;28;19917;-88
2021/08/27 11:59:45;;;;;;;3.70;2.10;;;;;;;;;;4950714;28;20043;-88
2021/08/27 12:02:15;;;;;;;7.20;2.47;;;;;;;;;;4984615;28;20063;-89
2021/08/27 12:04:41;;;;;;;4.72;1.90;;;;;;;;;;4953137;28;20049;-87
2021/08/27 12:07:10;;;;;;;7.30;2.60;;;;;;;;;;4962863;28;20028;-87
2021/08/27 12:09:35;;;;;;;;;;;;;;;;;;4991617;28;20343;-87
2021/08/27 12:12:01;;;;;;;6.68;2.35;;;;;;;;;;4963948;28;19991;-89
2021/08/27 12:14:46;;;;;;;15.32;9.40;;;;;;;;;;4974934;28;20037;-90
2021/08/27 12:17:16;;;;;;;7.55;2.65;;;;;;;;;;4970130;28;20027;-89
2021/08/27 12:19:42;;;;;;;4.97;2.17;;;;;;;;;;4974494;28;20439;-88
2021/08/27 12:22:11;;;;;;;5.88;1.85;;;;;;;;;;4974594;28;20030;-88
2021/08/27 12:24:37;;;;;;;6.75;2.33;;;;;;;;;;4965160;28;20046;-88
2021/08/27 12:27:03;;;;;;;3.92;2.10;;;;;;;;;;4987043;28;20279;-88
2021/08/27 12:29:28;;;;;;;8.98;2.17;;;;;;;;;;4958575;28;20020;-87
2021/08/27 12:31:54;;;;;;;3.50;1.90;;;;;;;;;;4966789;28;20023;-88
2021/08/27 12:34:22;;;;;;;3.78;1.63;;;;;;;;;;4974485;28;20023;-91
2021/08/27 12:36:49;;;;;;;5.47;1.90;;;;;;;;;;4968096;28;20050;-89
2021/08/27 12:39:15;;;;;;;5.78;2.17;;;;;;;;;;4994795;28;20041;-90
2021/08/27 12:41:40;;;;;;;4.90;2.17;;;;;;;;;;4953431;28;20047;-88
2021/08/27 12:44:11;;;;;;;7.20;2.13;;;;;;;;;;4954913;29;20031;-90
2021/08/27 12:46:39;;;;;;;5.25;2.30;;;;;;;;;;4955689;28;20026;-88
2021/08/27 12:49:13;;;;;;;3.72;1.90;;;;;;;;;;4954107;29;20113;-88
2021/08/27 12:51:41;;;;;;;3.08;1.70;;;;;;;;;;4948075;29;20023;-86
2021/08/27 12:54:07;;;;;;;4.55;1.60;;;;;;;;;;4952366;29;20110;-86
2021/08/27 12:56:32;;;;;;;4.15;1.55;;;;;;;;;;4953145;28;20110;-87
2021/08/27 12:59:12;;;;;;;2.30;1.40;;;;;;;;;;4953092;29;20054;-87
2021/08/27 13:01:38;;;;;;;3.72;1.60;;;;;;;;;;4951895;29;20045;-86
2021/08/27 13:04:03;;;;;;;3.20;1.60;;;;;;;;;;4954276;28;20537;-89
2021/08/27 13:06:30;;;;;;;7.03;2.38;;;;;;;;;;4959352;28;20478;-89
2021/08/27 13:08:56;;;;;;;9.43;2.25;;;;;;;;;;4952680;28;20019;-89
2021/08/27 13:11:42;;;;;;;4.43;1.60;;;;;;;;;;4953172;29;20383;-89
2021/08/27 13:14:23;;;;;;;3.20;1.70;;;;;;;;;;4953905;28;20028;-89
2021/08/27 13:16:56;;;;;;;1.73;1.40;;;;;;;;;;4954311;29;20023;-90
2021/08/27 13:19:23;;;;;;;6.05;1.85;;;;;;;;;;4954840;28;20363;-89
2021/08/27 13:21:49;;;;;;;4.38;1.95;;;;;;;;;;4955448;28;20030;-89
2021/08/27 13:24:15;;;;;;;4.65;1.63;;;;;;;;;;4955160;29;20019;-89
2021/08/27 13:26:41;;;;;;;4.60;2.30;;;;;;;;;;4958489;28;20074;-89
2021/08/27 13:29:07;;;;;;;2.28;1.42;;;;;;;;;;4955837;29;20497;-87
2021/08/27 13:31:32;;;;;;;5.00;1.85;;;;;;;;;;4956497;28;20019;-89
2021/08/27 13:33:58;;;;;;;3.08;1.58;;;;;;;;;;4964137;29;20474;-86
2021/08/27 13:36:25;;;;;;;2.92;1.63;;;;;;;;;;4954984;29;20027;-88
2021/08/27 13:38:50;;;;;;;3.88;1.90;;;;;;;;;;4954845;28;20044;-89
2021/08/27 13:41:16;;;;;;;3.97;2.03;;;;;;;;;;4960801;28;20065;-90
2021/08/27 13:43:42;;;;;;;3.22;1.73;;;;;;;;;;4962868;28;20039;-90
2021/08/27 13:46:08;;;;;;;5.00;1.77;;;;;;;;;;4960700;28;20137;-90
2021/08/27 13:48:33;;;;;;;3.83;1.60;;;;;;;;;;4959635;28;20023;-89
2021/08/27 13:50:59;;;;;;;5.93;2.10;;;;;;;;;;4955529;28;20011;-89
2021/08/27 13:53:25;;;;;;;2.53;1.73;;;;;;;;;;4955649;28;20019;-90
2021/08/27 13:55:50;;;;;;;3.88;1.90;;;;;;;;;;4954767;28;20470;-89
2021/08/27 13:58:17;;;;;;;3.17;1.90;;;;;;;;;;4954718;28;20493;-89
2021/08/27 14:00:43;;;;;;;7.35;1.40;;;;;;;;;;4936558;29;20027;-90
2021/08/27 14:03:12;;;;;;;2.80;1.70;;;;;;;;;;4954776;28;20030;-89
2021/08/27 14:05:38;;;;;;;3.78;1.95;;;;;;;;;;4954876;28;20042;-87
2021/08/27 14:08:04;;;;;;;4.20;1.60;;;;;;;;;;4954265;28;20031;-87
2021/08/27 14:10:29;;;;;;;3.97;2.08;;;;;;;;;;4959494;28;20023;-88
2021/08/27 14:12:55;;;;;;;3.78;1.92;;;;;;;;;;4964787;28;20853;-87
2021/08/27 14:15:35;;;;;;;3.53;1.95;;;;;;;;;;4953071;28;20019;-87
2021/08/27 14:18:01;;;;;;;6.78;1.80;;;;;;;;;;4952999;28;20008;-88
2021/08/27 14:20:26;;;;;;;6.28;1.90;;;;;;;;;;4935311;29;20035;-86
2021/08/27 14:22:51;;;;;;;5.07;2.80;;;;;;;;;;4952584;28;20058;-88
2021/08/27 14:25:17;;;;;;;5.40;1.98;;;;;;;;;;4935328;29;20086;-87
2021/08/27 14:27:43;;;;;;;4.55;2.30;;;;;;;;;;4952982;28;20027;-87
2021/08/27 14:30:11;;;;;;;5.00;2.75;;;;;;;;;;4952340;28;20386;-88
2021/08/27 14:32:39;;;;;;;3.33;1.92;;;;;;;;;;4952865;28;20236;-87
2021/08/27 14:35:05;;;;;;;3.90;2.10;;;;;;;;;;4947275;29;20840;-87
2021/08/27 14:37:30;;;;;;;4.28;2.20;;;;;;;;;;4952404;28;20483;-85
2021/08/27 14:39:55;;;;;;;5.30;2.00;;;;;;;;;;4952377;28;20059;-86
2021/08/27 14:42:21;;;;;;;4.20;2.20;;;;;;;;;;4952896;28;20043;-87